Terminal Aerodrome Forecast
Issued by NWS Jackson, KY

Home | Current Version | Previous Version | Text Only | Print | Product List | Glossary On
Versions: 1 2 3 4 5 6 7 8 9 10 11 12 13 14 15 16 17 18 19 20 21 22 23
000
FTUS43 KJKL 151736
TAFJKL
TAF
KJKL 151736Z 1518/1618 VRB03KT P6SM FEW250
     FM160600 VRB03KT P6SM OVC060
     FM160900 VRB03KT P6SM VCSH SCT020 BKN060
     FM161500 VRB03KT P6SM BKN020=

USA.gov is the U.S. government's official web portal to all federal, state and local government web resources and services.